sensor_id;sensor_type;location;lat;lon;timestamp;pressure;altitude;pressure_sealevel;temperature;humidity
36630;BME280;36256;42.154;23.002;2022-09-01T00:01:47;96996.44;;;19.34;100.00
36630;BME280;36256;42.154;23.002;2022-09-01T00:04:18;96992.28;;;19.35;100.00
36630;BME280;36256;42.154;23.002;2022-09-01T00:06:46;96986.31;;;19.33;100.00
36630;BME280;36256;42.154;23.002;2022-09-01T00:09:17;96986.59;;;19.29;100.00
36630;BME280;36256;42.154;23.002;2022-09-01T00:11:47;96989.72;;;19.26;100.00
36630;BME280;36256;42.154;23.002;2022-09-01T00:14:18;96983.50;;;19.22;100.00
36630;BME280;36256;42.154;23.002;2022-09-01T00:16:58;96975.25;;;19.13;100.00
36630;BME280;36256;42.154;23.002;2022-09-01T00:19:25;96978.34;;;19.04;100.00
36630;BME280;36256;42.154;23.002;2022-09-01T00:21:52;96976.28;;;19.04;100.00
36630;BME280;36256;42.154;23.002;2022-09-01T00:24:19;96978.84;;;18.97;100.00
36630;BME280;36256;42.154;23.002;2022-09-01T00:26:46;96989.22;;;19.00;100.00
36630;BME280;36256;42.154;23.002;2022-09-01T00:29:13;96980.94;;;19.02;100.00
36630;BME280;36256;42.154;23.002;2022-09-01T00:31:40;96981.44;;;18.95;100.00
36630;BME280;36256;42.154;23.002;2022-09-01T00:34:07;96985.84;;;18.96;100.00
36630;BME280;36256;42.154;23.002;2022-09-01T00:36:34;96983.78;;;18.96;100.00
36630;BME280;36256;42.154;23.002;2022-09-01T00:39:01;96986.38;;;19.00;100.00
36630;BME280;36256;42.154;23.002;2022-09-01T00:41:29;97007.28;;;19.08;100.00
36630;BME280;36256;42.154;23.002;2022-09-01T00:43:59;96999.56;;;19.03;100.00
36630;BME280;36256;42.154;23.002;2022-09-01T00:46:29;96992.81;;;18.95;100.00
36630;BME280;36256;42.154;23.002;2022-09-01T00:49:01;97003.69;;;18.91;100.00
36630;BME280;36256;42.154;23.002;2022-09-01T00:51:30;97001.63;;;18.86;100.00
36630;BME280;36256;42.154;23.002;2022-09-01T00:53:57;97006.25;;;18.89;100.00
36630;BME280;36256;42.154;23.002;2022-09-01T00:56:24;96998.00;;;18.91;100.00
36630;BME280;36256;42.154;23.002;2022-09-01T00:58:51;97001.38;;;18.89;100.00
36630;BME280;36256;42.154;23.002;2022-09-01T01:01:19;96989.22;;;18.89;100.00
36630;BME280;36256;42.154;23.002;2022-09-01T01:03:45;97000.56;;;18.89;100.00
36630;BME280;36256;42.154;23.002;2022-09-01T01:06:14;96999.31;;;18.90;100.00
36630;BME280;36256;42.154;23.002;2022-09-01T01:08:46;96992.56;;;18.87;100.00
36630;BME280;36256;42.154;23.002;2022-09-01T01:11:30;96988.19;;;18.92;100.00
36630;BME280;36256;42.154;23.002;2022-09-01T01:14:04;97001.09;;;18.93;100.00
36630;BME280;36256;42.154;23.002;2022-09-01T01:16:42;96993.88;;;18.92;100.00
36630;BME280;36256;42.154;23.002;2022-09-01T01:19:28;96995.41;;;18.93;100.00
36630;BME280;36256;42.154;23.002;2022-09-01T01:22:43;97005.47;;;18.88;100.00
36630;BME280;36256;42.154;23.002;2022-09-01T01:25:32;97007.03;;;18.89;100.00
36630;BME280;36256;42.154;23.002;2022-09-01T01:28:30;97002.66;;;18.94;100.00
36630;BME280;36256;42.154;23.002;2022-09-01T01:31:07;97002.38;;;18.97;100.00
36630;BME280;36256;42.154;23.002;2022-09-01T01:36:10;97009.63;;;18.93;100.00
36630;BME280;36256;42.154;23.002;2022-09-01T01:38:40;97005.50;;;18.83;100.00
36630;BME280;36256;42.154;23.002;2022-09-01T01:41:09;96997.47;;;18.87;100.00
36630;BME280;36256;42.154;23.002;2022-09-01T01:43:37;97002.38;;;18.86;100.00
36630;BME280;36256;42.154;23.002;2022-09-01T01:46:06;97000.34;;;18.92;100.00
36630;BME280;36256;42.154;23.002;2022-09-01T01:48:37;97001.59;;;18.97;100.00
36630;BME280;36256;42.154;23.002;2022-09-01T01:51:08;97007.28;;;18.97;100.00
36630;BME280;36256;42.154;23.002;2022-09-01T01:53:38;97008.09;;;18.92;100.00
36630;BME280;36256;42.154;23.002;2022-09-01T01:56:05;96994.91;;;18.83;100.00
36630;BME280;36256;42.154;23.002;2022-09-01T01:58:34;97002.38;;;18.80;100.00
36630;BME280;36256;42.154;23.002;2022-09-01T02:01:01;97000.31;;;18.81;100.00
36630;BME280;36256;42.154;23.002;2022-09-01T02:03:32;97002.91;;;18.79;100.00
36630;BME280;36256;42.154;23.002;2022-09-01T02:06:09;97009.66;;;18.82;100.00
36630;BME280;36256;42.154;23.002;2022-09-01T02:08:38;97013.50;;;18.78;100.00
36630;BME280;36256;42.154;23.002;2022-09-01T02:11:06;97018.41;;;18.78;100.00
36630;BME280;36256;42.154;23.002;2022-09-01T02:13:33;97016.09;;;18.76;100.00
36630;BME280;36256;42.154;23.002;2022-09-01T02:16:02;97020.75;;;18.68;100.00
36630;BME280;36256;42.154;23.002;2022-09-01T02:18:35;97016.31;;;18.67;100.00
36630;BME280;36256;42.154;23.002;2022-09-01T02:21:03;97020.75;;;18.68;100.00
36630;BME280;36256;42.154;23.002;2022-09-01T02:23:41;97024.06;;;18.67;100.00
36630;BME280;36256;42.154;23.002;2022-09-01T02:26:08;97029.25;;;18.74;100.00
36630;BME280;36256;42.154;23.002;2022-09-01T02:28:43;97026.41;;;18.68;100.00
36630;BME280;36256;42.154;23.002;2022-09-01T02:31:10;97029.50;;;18.65;100.00
36630;BME280;36256;42.154;23.002;2022-09-01T02:33:38;97036.72;;;18.49;100.00
36630;BME280;36256;42.154;23.002;2022-09-01T02:36:07;97025.81;;;18.42;100.00
36630;BME280;36256;42.154;23.002;2022-09-01T02:38:34;97028.72;;;18.48;100.00
36630;BME280;36256;42.154;23.002;2022-09-01T02:41:04;97022.78;;;18.51;100.00
36630;BME280;36256;42.154;23.002;2022-09-01T02:43:30;97031.56;;;18.53;100.00
36630;BME280;36256;42.154;23.002;2022-09-01T02:46:00;97030.00;;;18.52;100.00
36630;BME280;36256;42.154;23.002;2022-09-01T02:48:31;97027.94;;;18.47;100.00
36630;BME280;36256;42.154;23.002;2022-09-01T02:51:20;97026.84;;;18.39;100.00
36630;BME280;36256;42.154;23.002;2022-09-01T02:53:48;97032.53;;;18.39;100.00
36630;BME280;36256;42.154;23.002;2022-09-01T02:56:19;97032.06;;;18.46;100.00
36630;BME280;36256;42.154;23.002;2022-09-01T02:58:50;97032.53;;;18.39;100.00
36630;BME280;36256;42.154;23.002;2022-09-01T03:01:19;97034.63;;;18.44;100.00
36630;BME280;36256;42.154;23.002;2022-09-01T03:03:48;97027.94;;;18.47;100.00
36630;BME280;36256;42.154;23.002;2022-09-01T03:06:15;97024.56;;;18.49;100.00
36630;BME280;36256;42.154;23.002;2022-09-01T03:08:43;97027.94;;;18.47;100.00
36630;BME280;36256;42.154;23.002;2022-09-01T03:11:10;97033.84;;;18.44;100.00
36630;BME280;36256;42.154;23.002;2022-09-01T03:13:38;97040.31;;;18.44;100.00
36630;BME280;36256;42.154;23.002;2022-09-01T03:16:05;97043.41;;;18.46;100.00
36630;BME280;36256;42.154;23.002;2022-09-01T03:18:32;97040.34;;;18.55;100.00
36630;BME280;36256;42.154;23.002;2022-09-01T03:20:59;97041.34;;;18.52;100.00
36630;BME280;36256;42.154;23.002;2022-09-01T03:23:28;97041.88;;;18.45;100.00
36630;BME280;36256;42.154;23.002;2022-09-01T03:25:54;97042.44;;;18.60;100.00
36630;BME280;36256;42.154;23.002;2022-09-01T03:28:22;97044.97;;;18.47;100.00
36630;BME280;36256;42.154;23.002;2022-09-01T03:30:50;97049.03;;;18.35;100.00
36630;BME280;36256;42.154;23.002;2022-09-01T03:33:18;97050.06;;;18.32;100.00
36630;BME280;36256;42.154;23.002;2022-09-01T03:35:45;97062.72;;;18.31;100.00
36630;BME280;36256;42.154;23.002;2022-09-01T03:38:12;97052.13;;;18.32;100.00
36630;BME280;36256;42.154;23.002;2022-09-01T03:40:46;97050.31;;;18.29;100.00
36630;BME280;36256;42.154;23.002;2022-09-01T03:43:13;97050.06;;;18.32;100.00
36630;BME280;36256;42.154;23.002;2022-09-01T03:45:39;97053.19;;;18.34;100.00
36630;BME280;36256;42.154;23.002;2022-09-01T03:48:07;97058.31;;;18.30;100.00
36630;BME280;36256;42.154;23.002;2022-09-01T03:50:38;97055.75;;;18.32;100.00
36630;BME280;36256;42.154;23.002;2022-09-01T03:53:14;97059.13;;;18.36;100.00
36630;BME280;36256;42.154;23.002;2022-09-01T03:55:42;97061.69;;;18.40;100.00
36630;BME280;36256;42.154;23.002;2022-09-01T03:58:10;97050.13;;;18.43;100.00
36630;BME280;36256;42.154;23.002;2022-09-01T04:00:41;97051.19;;;18.51;100.00
36630;BME280;36256;42.154;23.002;2022-09-01T04:03:14;97054.44;;;18.28;100.00
36630;BME280;36256;42.154;23.002;2022-09-01T04:05:43;97063.72;;;18.23;100.00
36630;BME280;36256;42.154;23.002;2022-09-01T04:08:10;97058.22;;;18.08;100.00
36630;BME280;36256;42.154;23.002;2022-09-01T04:10:50;97057.22;;;18.11;100.00
36630;BME280;36256;42.154;23.002;2022-09-01T04:13:53;97066.53;;;18.17;100.00
36630;BME280;36256;42.154;23.002;2022-09-01T04:16:16;97057.22;;;18.06;100.00
36630;BME280;36256;42.154;23.002;2022-09-01T04:19:03;97052.03;;;18.04;100.00
36630;BME280;36256;42.154;23.002;2022-09-01T04:21:45;97063.66;;;18.06;100.00
36630;BME280;36256;42.154;23.002;2022-09-01T04:24:11;97051.81;;;18.13;100.00
36630;BME280;36256;42.154;23.002;2022-09-01T04:26:40;97052.28;;;18.00;100.00
36630;BME280;36256;42.154;23.002;2022-09-01T04:29:07;97054.84;;;17.98;100.00
36630;BME280;36256;42.154;23.002;2022-09-01T04:31:36;97061.31;;;17.99;100.00
36630;BME280;36256;42.154;23.002;2022-09-01T04:34:04;97056.16;;;18.03;100.00
36630;BME280;36256;42.154;23.002;2022-09-01T04:36:36;97057.97;;;18.06;100.00
36630;BME280;36256;42.154;23.002;2022-09-01T04:39:04;97062.09;;;18.05;100.00
36630;BME280;36256;42.154;23.002;2022-09-01T04:41:39;97052.56;;;18.08;100.00
36630;BME280;36256;42.154;23.002;2022-09-01T04:44:05;97055.13;;;18.06;100.00
36630;BME280;36256;42.154;23.002;2022-09-01T04:46:33;97060.06;;;18.06;100.00
36630;BME280;36256;42.154;23.002;2022-09-01T04:49:04;97049.97;;;18.10;100.00
36630;BME280;36256;42.154;23.002;2022-09-01T04:51:39;97060.13;;;18.22;100.00
36630;BME280;36256;42.154;23.002;2022-09-01T04:54:06;97050.56;;;18.25;100.00
36630;BME280;36256;42.154;23.002;2022-09-01T04:56:36;97062.69;;;18.26;100.00
36630;BME280;36256;42.154;23.002;2022-09-01T04:59:03;97049.53;;;18.28;100.00
36630;BME280;36256;42.154;23.002;2022-09-01T05:01:33;97053.44;;;18.31;100.00
36630;BME280;36256;42.154;23.002;2022-09-01T05:04:14;97057.53;;;18.30;100.00
36630;BME280;36256;42.154;23.002;2022-09-01T05:06:44;97049.56;;;18.34;100.00
36630;BME280;36256;42.154;23.002;2022-09-01T05:09:11;97044.91;;;18.36;100.00
36630;BME280;36256;42.154;23.002;2022-09-01T05:11:38;97045.44;;;18.40;100.00
36630;BME280;36256;42.154;23.002;2022-09-01T05:14:06;97050.13;;;18.43;100.00
36630;BME280;36256;42.154;23.002;2022-09-01T05:16:33;97049.09;;;18.46;100.00
36630;BME280;36256;42.154;23.002;2022-09-01T05:19:01;97047.56;;;18.45;100.00
36630;BME280;36256;42.154;23.002;2022-09-01T05:21:27;97054.28;;;18.48;100.00
36630;BME280;36256;42.154;23.002;2022-09-01T05:23:56;97051.44;;;18.48;100.00
36630;BME280;36256;42.154;23.002;2022-09-01T05:26:24;97052.72;;;18.52;100.00
36630;BME280;36256;42.154;23.002;2022-09-01T05:28:53;97053.81;;;18.60;100.00
36630;BME280;36256;42.154;23.002;2022-09-01T05:31:21;97046.28;;;18.63;100.00
36630;BME280;36256;42.154;23.002;2022-09-01T05:33:48;97053.78;;;18.71;100.00
36630;BME280;36256;42.154;23.002;2022-09-01T05:36:16;97052.50;;;18.67;100.00
36630;BME280;36256;42.154;23.002;2022-09-01T05:38:44;97054.84;;;18.68;100.00
36630;BME280;36256;42.154;23.002;2022-09-01T05:41:14;97054.31;;;18.64;100.00
36630;BME280;36256;42.154;23.002;2022-09-01T05:43:42;97046.81;;;18.56;100.00
36630;BME280;36256;42.154;23.002;2022-09-01T05:46:23;97052.47;;;18.50;100.00
36630;BME280;36256;42.154;23.002;2022-09-01T05:48:52;97045.69;;;18.42;100.00
36630;BME280;36256;42.154;23.002;2022-09-01T05:51:20;97044.72;;;18.51;100.00
36630;BME280;36256;42.154;23.002;2022-09-01T05:54:07;97045.50;;;18.51;100.00
36630;BME280;36256;42.154;23.002;2022-09-01T05:56:36;97039.31;;;18.47;100.00
36630;BME280;36256;42.154;23.002;2022-09-01T05:59:10;97055.53;;;18.41;100.00
36630;BME280;36256;42.154;23.002;2022-09-01T06:01:54;97044.47;;;18.49;100.00
36630;BME280;36256;42.154;23.002;2022-09-01T06:04:21;97043.97;;;18.61;100.00
36630;BME280;36256;42.154;23.002;2022-09-01T06:06:48;97038.53;;;18.63;100.00
36630;BME280;36256;42.154;23.002;2022-09-01T06:09:36;97042.94;;;18.75;100.00
36630;BME280;36256;42.154;23.002;2022-09-01T06:12:03;97045.81;;;18.81;100.00
36630;BME280;36256;42.154;23.002;2022-09-01T06:14:30;97042.72;;;19.07;100.00
36630;BME280;36256;42.154;23.002;2022-09-01T06:16:57;97041.97;;;19.01;100.00
36630;BME280;36256;42.154;23.002;2022-09-01T06:19:24;97037.03;;;18.90;100.00
36630;BME280;36256;42.154;23.002;2022-09-01T06:21:50;97034.72;;;19.00;100.00
36630;BME280;36256;42.154;23.002;2022-09-01T06:24:17;97030.56;;;18.90;100.00
36630;BME280;36256;42.154;23.002;2022-09-01T06:26:43;97022.28;;;18.80;100.00
36630;BME280;36256;42.154;23.002;2022-09-01T06:29:11;97025.66;;;18.85;100.00
36630;BME280;36256;42.154;23.002;2022-09-01T06:31:41;97024.88;;;18.78;100.00
36630;BME280;36256;42.154;23.002;2022-09-01T06:34:12;97026.94;;;18.95;100.00
36630;BME280;36256;42.154;23.002;2022-09-01T06:36:43;97024.09;;;18.89;100.00
36630;BME280;36256;42.154;23.002;2022-09-01T06:39:11;97029.28;;;18.85;100.00
36630;BME280;36256;42.154;23.002;2022-09-01T06:41:48;97033.16;;;19.10;100.00
36630;BME280;36256;42.154;23.002;2022-09-01T06:44:19;97031.56;;;19.31;100.00
36630;BME280;36256;42.154;23.002;2022-09-01T06:46:48;97027.97;;;19.14;100.00
36630;BME280;36256;42.154;23.002;2022-09-01T06:49:15;97030.03;;;19.41;100.00
36630;BME280;36256;42.154;23.002;2022-09-01T06:51:42;97031.31;;;19.29;100.00
36630;BME280;36256;42.154;23.002;2022-09-01T06:54:09;97026.44;;;19.35;100.00
36630;BME280;36256;42.154;23.002;2022-09-01T06:56:40;97024.91;;;19.34;100.00
36630;BME280;36256;42.154;23.002;2022-09-01T06:59:16;97025.09;;;19.58;100.00
36630;BME280;36256;42.154;23.002;2022-09-01T07:01:43;97022.19;;;19.80;100.00
36630;BME280;36256;42.154;23.002;2022-09-01T07:04:10;97028.53;;;20.25;100.00
36630;BME280;36256;42.154;23.002;2022-09-01T07:06:39;97029.91;;;20.89;99.33
36630;BME280;36256;42.154;23.002;2022-09-01T07:09:25;97037.94;;;21.55;93.65
36630;BME280;36256;42.154;23.002;2022-09-01T07:12:12;97029.00;;;21.94;91.04
36630;BME280;36256;42.154;23.002;2022-09-01T07:14:54;97030.75;;;22.40;87.88
36630;BME280;36256;42.154;23.002;2022-09-01T07:17:42;97034.28;;;22.70;86.63
36630;BME280;36256;42.154;23.002;2022-09-01T07:20:14;97027.88;;;23.14;84.82
36630;BME280;36256;42.154;23.002;2022-09-01T07:22:49;97021.41;;;23.59;83.79
36630;BME280;36256;42.154;23.002;2022-09-01T07:25:33;97026.16;;;23.95;80.99
36630;BME280;36256;42.154;23.002;2022-09-01T07:28:21;97030.34;;;24.47;77.25
36630;BME280;36256;42.154;23.002;2022-09-01T07:31:16;97031.66;;;24.92;75.11
36630;BME280;36256;42.154;23.002;2022-09-01T07:34:06;97036.97;;;24.88;76.60
36630;BME280;36256;42.154;23.002;2022-09-01T07:36:57;97018.69;;;24.65;78.65
36630;BME280;36256;42.154;23.002;2022-09-01T07:39:45;97022.00;;;24.82;78.31
36630;BME280;36256;42.154;23.002;2022-09-01T07:42:15;97020.84;;;25.19;77.52
36630;BME280;36256;42.154;23.002;2022-09-01T07:45:02;97013.47;;;25.44;72.59
36630;BME280;36256;42.154;23.002;2022-09-01T07:47:53;97010.06;;;25.53;74.11
36630;BME280;36256;42.154;23.002;2022-09-01T07:50:20;97015.19;;;25.68;72.35
36630;BME280;36256;42.154;23.002;2022-09-01T07:53:09;97015.88;;;25.61;71.11
36630;BME280;36256;42.154;23.002;2022-09-01T07:55:39;97014.66;;;25.49;73.10
36630;BME280;36256;42.154;23.002;2022-09-01T07:58:09;97012.31;;;25.47;74.01
36630;BME280;36256;42.154;23.002;2022-09-01T08:00:35;97011.19;;;25.71;74.52
36630;BME280;36256;42.154;23.002;2022-09-01T08:03:03;97010.38;;;25.91;73.91
36630;BME280;36256;42.154;23.002;2022-09-01T08:05:29;97004.09;;;25.72;75.51
36630;BME280;36256;42.154;23.002;2022-09-01T08:07:56;97010.28;;;25.76;77.56
36630;BME280;36256;42.154;23.002;2022-09-01T08:10:23;97007.53;;;25.70;76.80
36630;BME280;36256;42.154;23.002;2022-09-01T08:12:49;97004.63;;;25.91;76.08
36630;BME280;36256;42.154;23.002;2022-09-01T08:15:23;97000.38;;;26.13;74.22
36630;BME280;36256;42.154;23.002;2022-09-01T08:18:10;97005.38;;;25.92;74.06
36630;BME280;36256;42.154;23.002;2022-09-01T08:20:41;96996.53;;;26.10;75.21
36630;BME280;36256;42.154;23.002;2022-09-01T08:23:13;96996.06;;;26.34;72.22
36630;BME280;36256;42.154;23.002;2022-09-01T08:25:41;96992.41;;;26.26;72.12
36630;BME280;36256;42.154;23.002;2022-09-01T08:28:08;96989.13;;;26.22;72.94
36630;BME280;36256;42.154;23.002;2022-09-01T08:30:36;96983.75;;;26.26;73.13
36630;BME280;36256;42.154;23.002;2022-09-01T08:33:03;96991.66;;;26.77;74.68
36630;BME280;36256;42.154;23.002;2022-09-01T08:35:38;96977.94;;;27.13;71.78
36630;BME280;36256;42.154;23.002;2022-09-01T08:38:05;96966.47;;;27.43;65.81
36630;BME280;36256;42.154;23.002;2022-09-01T08:40:31;96965.66;;;27.65;65.33
36630;BME280;36256;42.154;23.002;2022-09-01T08:48:15;96954.50;;;27.84;61.00
36630;BME280;36256;42.154;23.002;2022-09-01T08:51:04;96948.88;;;28.09;62.02
36630;BME280;36256;42.154;23.002;2022-09-01T08:53:46;96950.34;;;28.40;60.43
36630;BME280;36256;42.154;23.002;2022-09-01T08:56:15;96940.91;;;28.40;58.09
36630;BME280;36256;42.154;23.002;2022-09-01T08:58:43;96938.56;;;28.46;55.84
36630;BME280;36256;42.154;23.002;2022-09-01T09:01:11;96936.28;;;28.44;56.97
36630;BME280;36256;42.154;23.002;2022-09-01T09:03:46;96938.69;;;28.55;57.70
36630;BME280;36256;42.154;23.002;2022-09-01T09:06:22;96925.84;;;28.56;52.75
36630;BME280;36256;42.154;23.002;2022-09-01T09:08:51;96921.69;;;28.35;56.85
36630;BME280;36256;42.154;23.002;2022-09-01T09:11:23;96918.03;;;28.34;56.24
36630;BME280;36256;42.154;23.002;2022-09-01T09:16:26;96910.31;;;28.37;58.37
36630;BME280;36256;42.154;23.002;2022-09-01T09:19:00;96900.50;;;28.40;54.84
36630;BME280;36256;42.154;23.002;2022-09-01T09:26:52;96887.69;;;28.65;54.30
36630;BME280;36256;42.154;23.002;2022-09-01T09:29:19;96899.88;;;28.81;53.88
36630;BME280;36256;42.154;23.002;2022-09-01T09:31:48;96888.66;;;28.68;51.97
36630;BME280;36256;42.154;23.002;2022-09-01T09:36:53;96888.66;;;28.68;53.39
36630;BME280;36256;42.154;23.002;2022-09-01T09:39:22;96875.13;;;28.70;52.30
36630;BME280;36256;42.154;23.002;2022-09-01T09:42:05;96884.38;;;28.69;52.66
36630;BME280;36256;42.154;23.002;2022-09-01T09:44:38;96874.41;;;28.62;55.06
36630;BME280;36256;42.154;23.002;2022-09-01T09:47:06;96866.88;;;28.67;55.88
36630;BME280;36256;42.154;23.002;2022-09-01T09:52:42;96856.38;;;28.87;52.25
36630;BME280;36256;42.154;23.002;2022-09-01T09:55:20;96849.81;;;28.86;52.24
36630;BME280;36256;42.154;23.002;2022-09-01T09:57:48;96844.50;;;28.75;50.70
36630;BME280;36256;42.154;23.002;2022-09-01T10:00:28;96846.03;;;28.76;52.93
36630;BME280;36256;42.154;23.002;2022-09-01T10:02:56;96849.47;;;28.82;55.44
36630;BME280;36256;42.154;23.002;2022-09-01T10:07:50;96835.00;;;29.07;53.00
36630;BME280;36256;42.154;23.002;2022-09-01T10:12:58;96817.63;;;29.14;50.26
36630;BME280;36256;42.154;23.002;2022-09-01T10:15:28;96813.50;;;29.00;52.70
36630;BME280;36256;42.154;23.002;2022-09-01T10:17:58;96816.91;;;29.06;53.64
36630;BME280;36256;42.154;23.002;2022-09-01T10:21:07;96807.72;;;29.00;50.83
36630;BME280;36256;42.154;23.002;2022-09-01T10:23:32;96804.03;;;28.83;50.15
36630;BME280;36256;42.154;23.002;2022-09-01T10:28:43;96801.25;;;28.92;53.88
36630;BME280;36256;42.154;23.002;2022-09-01T10:31:16;96802.78;;;28.93;50.69
36630;BME280;36256;42.154;23.002;2022-09-01T10:33:43;96812.50;;;29.05;54.77
36630;BME280;36256;42.154;23.002;2022-09-01T10:36:10;96805.22;;;29.21;54.08
36630;BME280;36256;42.154;23.002;2022-09-01T10:38:37;96807.63;;;29.32;53.83
36630;BME280;36256;42.154;23.002;2022-09-01T10:41:04;96809.25;;;29.43;53.99
36630;BME280;36256;42.154;23.002;2022-09-01T10:49:12;96809.19;;;29.68;50.08
36630;BME280;36256;42.154;23.002;2022-09-01T10:51:50;96803.75;;;29.89;46.86
36630;BME280;36256;42.154;23.002;2022-09-01T10:59:53;96792.91;;;30.50;48.50
36630;BME280;36256;42.154;23.002;2022-09-01T11:02:23;96782.88;;;30.51;46.24
36630;BME280;36256;42.154;23.002;2022-09-01T11:15:39;96756.25;;;30.36;46.63
36630;BME280;36256;42.154;23.002;2022-09-01T11:18:08;96757.97;;;30.39;44.54
36630;BME280;36256;42.154;23.002;2022-09-01T11:20:37;96743.53;;;30.21;45.43
36630;BME280;36256;42.154;23.002;2022-09-01T11:23:07;96735.66;;;30.05;45.83
36630;BME280;36256;42.154;23.002;2022-09-01T11:28:47;96737.28;;;29.98;47.12
36630;BME280;36256;42.154;23.002;2022-09-01T11:31:20;96728.81;;;30.10;51.28
36630;BME280;36256;42.154;23.002;2022-09-01T11:39:18;96715.13;;;30.37;45.83
36630;BME280;36256;42.154;23.002;2022-09-01T11:47:21;96704.72;;;30.61;48.00
36630;BME280;36256;42.154;23.002;2022-09-01T11:49:51;96698.50;;;30.64;48.53
36630;BME280;36256;42.154;23.002;2022-09-01T11:52:20;96689.34;;;30.77;43.78
36630;BME280;36256;42.154;23.002;2022-09-01T11:54:47;96697.69;;;30.54;49.11
36630;BME280;36256;42.154;23.002;2022-09-01T11:59:46;96692.19;;;30.58;45.07
36630;BME280;36256;42.154;23.002;2022-09-01T12:02:23;96687.47;;;30.53;45.69
36630;BME280;36256;42.154;23.002;2022-09-01T12:04:52;96681.47;;;30.42;43.69
36630;BME280;36256;42.154;23.002;2022-09-01T12:07:32;96688.16;;;30.35;45.69
36630;BME280;36256;42.154;23.002;2022-09-01T12:10:03;96691.66;;;30.33;49.18
36630;BME280;36256;42.154;23.002;2022-09-01T12:12:31;96692.06;;;30.30;49.23
36630;BME280;36256;42.154;23.002;2022-09-01T12:15:00;96695.47;;;30.36;48.87
36630;BME280;36256;42.154;23.002;2022-09-01T12:17:32;96684.00;;;30.28;46.87
36630;BME280;36256;42.154;23.002;2022-09-01T12:22:43;96676.84;;;30.65;41.36
36630;BME280;36256;42.154;23.002;2022-09-01T12:25:27;96666.09;;;30.39;46.34
36630;BME280;36256;42.154;23.002;2022-09-01T12:27:54;96659.31;;;30.27;47.99
36630;BME280;36256;42.154;23.002;2022-09-01T12:30:24;96667.84;;;30.25;52.00
36630;BME280;36256;42.154;23.002;2022-09-01T12:32:51;96665.84;;;30.18;53.26
36630;BME280;36256;42.154;23.002;2022-09-01T12:35:38;96662.59;;;30.14;46.94
36630;BME280;36256;42.154;23.002;2022-09-01T12:40:53;96658.13;;;30.30;45.24
36630;BME280;36256;42.154;23.002;2022-09-01T12:43:31;96657.84;;;30.36;49.41
36630;BME280;36256;42.154;23.002;2022-09-01T12:45:58;96662.50;;;30.21;47.64
36630;BME280;36256;42.154;23.002;2022-09-01T12:48:33;96669.38;;;30.26;48.87
36630;BME280;36256;42.154;23.002;2022-09-01T12:51:00;96674.94;;;30.14;53.50
36630;BME280;36256;42.154;23.002;2022-09-01T12:53:29;96674.84;;;29.95;58.70
36630;BME280;36256;42.154;23.002;2022-09-01T12:55:59;96681.59;;;29.81;61.49
36630;BME280;36256;42.154;23.002;2022-09-01T12:58:26;96679.16;;;29.60;61.06
36630;BME280;36256;42.154;23.002;2022-09-01T13:03:22;96673.34;;;29.33;64.70
36630;BME280;36256;42.154;23.002;2022-09-01T13:05:52;96670.09;;;29.29;63.17
36630;BME280;36256;42.154;23.002;2022-09-01T13:08:20;96671.47;;;29.28;64.69
36630;BME280;36256;42.154;23.002;2022-09-01T13:10:49;96680.75;;;29.27;63.77
36630;BME280;36256;42.154;23.002;2022-09-01T13:13:17;96680.88;;;29.12;65.92
36630;BME280;36256;42.154;23.002;2022-09-01T13:15:45;96674.59;;;28.89;66.61
36630;BME280;36256;42.154;23.002;2022-09-01T13:18:13;96675.16;;;28.70;68.62
36630;BME280;36256;42.154;23.002;2022-09-01T13:20:40;96673.13;;;28.55;71.38
36630;BME280;36256;42.154;23.002;2022-09-01T13:23:07;96674.22;;;28.43;73.73
36630;BME280;36256;42.154;23.002;2022-09-01T13:25:34;96685.91;;;28.28;75.03
36630;BME280;36256;42.154;23.002;2022-09-01T13:28:01;96684.50;;;28.36;58.98
36630;BME280;36256;42.154;23.002;2022-09-01T13:30:28;96704.63;;;28.19;63.19
36630;BME280;36256;42.154;23.002;2022-09-01T13:32:55;96709.94;;;27.98;67.90
36630;BME280;36256;42.154;23.002;2022-09-01T13:35:42;96715.78;;;27.43;75.41
36630;BME280;36256;42.154;23.002;2022-09-01T13:38:09;96709.94;;;26.96;81.52
36630;BME280;36256;42.154;23.002;2022-09-01T13:40:35;96713.78;;;26.83;82.84
36630;BME280;36256;42.154;23.002;2022-09-01T13:43:02;96719.16;;;26.57;86.31
36630;BME280;36256;42.154;23.002;2022-09-01T13:45:30;96718.72;;;26.07;87.11
36630;BME280;36256;42.154;23.002;2022-09-01T13:47:57;96711.59;;;25.86;89.54
36630;BME280;36256;42.154;23.002;2022-09-01T13:50:44;96702.19;;;25.78;90.69
36630;BME280;36256;42.154;23.002;2022-09-01T13:53:32;96700.59;;;25.61;90.36
36630;BME280;36256;42.154;23.002;2022-09-01T13:55:58;96702.91;;;25.63;90.28
36630;BME280;36256;42.154;23.002;2022-09-01T13:58:25;96700.63;;;25.69;91.13
36630;BME280;36256;42.154;23.002;2022-09-01T14:00:51;96694.91;;;25.77;92.59
36630;BME280;36256;42.154;23.002;2022-09-01T14:03:19;96702.56;;;25.74;93.54
36630;BME280;36256;42.154;23.002;2022-09-01T14:05:47;96708.94;;;25.95;90.18
36630;BME280;36256;42.154;23.002;2022-09-01T14:08:15;96712.91;;;25.77;97.43
36630;BME280;36256;42.154;23.002;2022-09-01T14:10:43;96707.53;;;25.66;98.64
36630;BME280;36256;42.154;23.002;2022-09-01T14:13:10;96704.78;;;25.53;100.00
36630;BME280;36256;42.154;23.002;2022-09-01T14:15:37;96708.19;;;25.44;100.00
36630;BME280;36256;42.154;23.002;2022-09-01T14:18:04;96710.44;;;25.38;100.00
36630;BME280;36256;42.154;23.002;2022-09-01T14:20:32;96702.75;;;25.33;100.00
36630;BME280;36256;42.154;23.002;2022-09-01T14:23:03;96709.66;;;25.30;100.00